Last 6 Hours

Alpine-Roundhouse Top 7880'

15 Minute Data | America/Los_Angeles
as of 1/15/21 12:08 PM PST
Date & Time Temp (°F) RH (%) Dew Pt (°F) Wet Bulb (°F) Wind Dir (°) Wind Spd (mph) Wind Gust (mph) WindChill (°F)
1/15/21 - 1200 52.5 21 14.2 36.8 NE | 53 4.2 14.5 52.1
1/15/21 - 1145 52.2 24 16.3 37.2 NE | 52 4.9 11.4 51.8
1/15/21 - 1130 53.3 23 16.7 37.8 NE | 48 4.7 15.3 53.3
1/15/21 - 1115 53.6 24 17.7 38.2 NE | 36 2.0 8.5 53.8
1/15/21 - 1100 53.9 23 16.8 38.1 NE | 54 4.4 10.1 53.5
1/15/21 - 1045 53.9 21 14.9 37.7 ENE | 78 5.9 13.4 54.4
1/15/21 - 1030 54.9 18 12.3 37.6 ENE | 75 6.1 10.6 54.3
1/15/21 - 1015 54.9 16 9.9 37.2 ENE | 62 4.2 10.6 55.3
1/15/21 - 1000 55.4 15 8.0 37.1 ENE | 73 4.7 11.0 55.4
1/15/21 - 0945 55.4 14 7.1 36.9 E | 86 4.9 10.3 55.6
1/15/21 - 0930 55.5 15 8.2 37.2 ENE | 68 3.0 9.3 55.6
1/15/21 - 0915 55.4 14 7.0 36.9 E | 90 5.2 9.2 55.1
1/15/21 - 0900 54.9 14 7.1 36.7 E | 91 4.4 8.7 54.3
1/15/21 - 0845 53.9 14 5.8 36.0 ESE | 103 5.8 9.7 52.2
1/15/21 - 0830 51.7 15 5.8 34.9 E | 101 5.7 8.7 49.3
1/15/21 - 0815 50.2 17 7.0 34.3 SE | 128 4.5 7.9 48.9
1/15/21 - 0800 49.7 17 6.2 33.9 SSE | 156 2.5 7.8 49.0
1/15/21 - 0745 49.7 15 4.1 33.5 SW | 221 0.9 3.7 49.8
1/15/21 - 0730 49.9 14 2.3 33.4 SW | 229 1.3 4.9 50.3
1/15/21 - 0715 50.3 13 2.0 33.5 SW | 234 1.3 5.6 49.8
1/15/21 - 0700 50.3 14 3.2 33.7 SW | 223 1.6 5.2 50.8
1/15/21 - 0645 51.5 14 3.1 34.3 WSW | 243 1.9 3.4 51.6
1/15/21 - 0630 51.4 14 3.1 34.3 SW | 235 2.4 3.8 50.9
1/15/21 - 0615 50.7 16 5.5 34.3 SW | 226 3.5 4.8 50.1
Max 55.5 24 17.7 38.2 - 6.1 15.3 55.6
Avg 52.7 17 8.5 35.9 - 3.8 8.7 52.4
Min 49.7 13 2.0 33.4 - 0.9 3.4 48.9